Detall de PIREP

Printer-friendly versionPDF version

[2008/08/28 20:29:00]
Flight IATA:CT3114
Pilot Number:011
Company ICAO:CAT
Aircraft Type:F28/A
PAX:85
Departing Airport: LEBL
Destination Airport: LEVC
Alternate Airport:LEPA
Online: VATSIM
Route:LOTOS B28 SOPET
Flight Level:FL220
No Slew and time accel
No pause
Crash detect
Detect pilot in Cockpit between each 30 and 45 minutes
20:29 Zero fuel Weight: 60287 Lbs, Fuel Weight: 8258 Lbs
20:29 VATSIM:LEBL 282000Z VRB02KT 9999 FEW025 24/18 Q1018 NOSIG
20:29 VATSIM:LEVC 282000Z 08006KT 060V140 CAVOK 25/18 Q1018 NOSIG
20:33 Parking Brakes off
20:53 Take-off
20:53 Take off Weight: 67656 Lbs
20:53 Wind: 120 @ 000 Knots Heading: 065
20:53 POS N41 17 19 E002 05 34
20:53 Gear Up: 168 Knots
20:53 Flaps:2 at 168 Knots
20:53 Flaps:1 at 256 Knots
20:53 Flaps:0 at 260 Knots
21:05 TOC
21:05 Fuel Weight: 5748 Lb
21:08 Wind:118@004 Knots Heading: 291 Ground Speed: 38
7 Knots Altitude 22011 ft
21:23 Wind:035@005 Knots Heading: 227 Ground Speed: 412 Knots Altitude 21998 ft
21:23 TOD
21:23 Fuel Weight: 4369 Lb
21:34 Flaps:1 at 218 Knots
21:35 Flaps:2 at 202 Knots
21:35 Flaps:3 at 182 Knots
21:36 Gear Down: 162 Knots
21:36 Flaps:4 at 162 Knots
21:37 Flaps:5 at 153 Knots
21:38 Wind:114@004 Knots Heading: 296 Ground Speed: 144 Knots Altitude 452 ft
21:38 TouchDown:Rate -188 ft/min Speed: 121 Knots
21:38 VATSIM:LEVC 282100Z VRB01KT CAVOK 25/18 Q1018 NOSIG
21:38 Land
21:38 Wind:119@004 Knots
21:38 Heading: 296
21:38 Flight Duration: 00:45
21:38 Landing Weight: 63961 Lbs
21:38 POS N39 29 20 W000 28 51
21:43 Parking brakes on
21:43 Block to Block Duration: 01:10
21:43 Final Fuel: 3544 Lbls
21:43 Spent Fuel: 4713 Lbls
21:43 Flight Length: 73 NM
21:43 TOD Land Length: 16 NM

Exportar CSV

Powered by Drupal - Modified by Danger4k